createdAt,value
2022-09-24T00:00:25.397Z,13.68
2022-09-24T00:01:25.555Z,13.65
2022-09-24T00:02:25.495Z,13.63
2022-09-24T00:03:25.702Z,13.66
2022-09-24T00:04:25.426Z,13.57
2022-09-24T00:05:25.347Z,13.61
2022-09-24T00:06:25.338Z,13.62
2022-09-24T00:07:25.333Z,13.68
2022-09-24T00:08:25.342Z,13.69
2022-09-24T00:09:25.357Z,13.68
2022-09-24T00:10:25.289Z,13.59
2022-09-24T00:11:25.286Z,13.63
2022-09-24T00:12:25.303Z,13.68
2022-09-24T00:13:25.294Z,13.62
2022-09-24T00:14:25.255Z,13.66
2022-09-24T00:15:25.275Z,13.65
2022-09-24T00:16:25.298Z,13.71
2022-09-24T00:17:25.225Z,13.72
2022-09-24T00:18:25.224Z,13.71
2022-09-24T00:19:25.191Z,13.71
2022-09-24T00:20:25.183Z,13.71
2022-09-24T00:21:25.230Z,13.71
2022-09-24T00:22:25.161Z,13.66
2022-09-24T00:23:25.220Z,13.66
2022-09-24T00:24:25.151Z,13.69
2022-09-24T00:25:25.141Z,13.66
2022-09-24T00:26:25.117Z,13.61
2022-09-24T00:27:25.175Z,13.62
2022-09-24T00:28:25.164Z,13.63
2022-09-24T00:29:25.088Z,13.68
2022-09-24T00:30:25.077Z,13.61
2022-09-24T00:31:25.184Z,13.66
2022-09-24T00:32:25.051Z,13.53
2022-09-24T00:33:25.128Z,13.53
2022-09-24T00:34:25.033Z,13.55
2022-09-24T00:35:25.022Z,13.46
2022-09-24T00:36:25.011Z,13.51
2022-09-24T00:37:24.998Z,13.38
2022-09-24T00:38:25.007Z,13.36
2022-09-24T00:39:25.008Z,13.36
2022-09-24T00:40:25.005Z,13.29
2022-09-24T00:41:24.964Z,13.28
2022-09-24T00:42:24.944Z,13.31
2022-09-24T00:43:24.954Z,13.29
2022-09-24T00:44:24.960Z,13.24
2022-09-24T00:45:24.954Z,13.19
2022-09-24T00:46:24.927Z,13.22
2022-09-24T00:47:24.891Z,13.17
2022-09-24T00:48:24.915Z,13.10
2022-09-24T00:49:24.865Z,13.12
2022-09-24T00:50:24.863Z,13.10
2022-09-24T00:51:24.875Z,13.10
2022-09-24T00:52:24.835Z,13.16
2022-09-24T00:53:24.846Z,13.10
2022-09-24T00:54:24.812Z,13.12
2022-09-24T00:55:24.833Z,13.10
2022-09-24T00:56:24.798Z,13.09
2022-09-24T00:57:24.822Z,13.12
2022-09-24T00:58:24.797Z,13.06
2022-09-24T00:59:24.757Z,13.07
2022-09-24T01:00:24.789Z,12.96
2022-09-24T01:01:24.892Z,13.01
2022-09-24T01:02:24.847Z,13.03
2022-09-24T01:03:24.781Z,12.99
2022-09-24T01:04:24.704Z,13.01
2022-09-24T01:05:24.694Z,13.01
2022-09-24T01:06:24.684Z,12.99
2022-09-24T01:07:24.675Z,12.85
2022-09-24T01:08:24.707Z,13.04
2022-09-24T01:09:24.650Z,12.99
2022-09-24T01:10:24.644Z,12.94
2022-09-24T01:11:24.625Z,12.99
2022-09-24T01:12:24.618Z,12.99
2022-09-24T01:13:24.639Z,12.95
2022-09-24T01:14:24.641Z,12.94
2022-09-24T01:15:24.587Z,12.95
2022-09-24T01:16:24.789Z,12.88
2022-09-24T01:17:24.559Z,12.96
2022-09-24T01:18:24.567Z,12.95
2022-09-24T01:19:24.562Z,13.12
2022-09-24T01:20:24.585Z,13.21
2022-09-24T01:21:24.518Z,13.32
2022-09-24T01:22:24.515Z,13.32
2022-09-24T01:23:24.527Z,13.38
2022-09-24T01:24:24.485Z,13.54
2022-09-24T01:25:24.474Z,13.59
2022-09-24T01:26:24.508Z,13.66
2022-09-24T01:27:24.454Z,13.57
2022-09-24T01:28:24.474Z,13.54
2022-09-24T01:29:24.436Z,13.54
2022-09-24T01:30:24.424Z,13.48
2022-09-24T01:31:24.457Z,13.51
2022-09-24T01:32:27.725Z,13.55
2022-09-24T01:33:25.421Z,13.55
2022-09-24T01:34:24.380Z,13.53
2022-09-24T01:35:24.368Z,13.57
2022-09-24T01:36:24.360Z,13.51
2022-09-24T01:37:24.355Z,13.46
2022-09-24T01:38:24.396Z,13.41
2022-09-24T01:39:24.350Z,13.39
2022-09-24T01:40:24.384Z,13.41
2022-09-24T01:41:24.307Z,13.31
2022-09-24T01:42:24.289Z,13.43
2022-09-24T01:43:24.280Z,13.41
2022-09-24T01:44:24.345Z,13.36
2022-09-24T01:45:24.255Z,13.31
2022-09-24T01:46:24.341Z,13.25
2022-09-24T01:47:24.236Z,13.32
2022-09-24T01:48:24.266Z,13.35
2022-09-24T01:49:24.210Z,13.32
2022-09-24T01:50:24.258Z,13.36
2022-09-24T01:51:24.187Z,13.27
2022-09-24T01:52:24.187Z,13.27
2022-09-24T01:53:24.189Z,13.31
2022-09-24T01:54:24.156Z,13.36
2022-09-24T01:55:24.147Z,13.47
2022-09-24T01:56:24.188Z,13.41
2022-09-24T01:57:24.121Z,13.43
2022-09-24T01:58:24.133Z,13.43
2022-09-24T01:59:24.102Z,13.38
2022-09-24T02:00:24.096Z,13.36
2022-09-24T02:01:24.180Z,13.38
2022-09-24T02:02:24.140Z,13.41
2022-09-24T02:03:24.087Z,13.41
2022-09-24T02:04:24.075Z,13.50
2022-09-24T02:05:24.051Z,13.54
2022-09-24T02:06:24.039Z,13.50
2022-09-24T02:07:24.028Z,13.51
2022-09-24T02:08:24.076Z,13.54
2022-09-24T02:09:23.994Z,13.54
2022-09-24T02:10:23.989Z,13.48
2022-09-24T02:11:23.974Z,13.54
2022-09-24T02:12:23.966Z,13.54
2022-09-24T02:13:23.966Z,13.54
2022-09-24T02:14:23.998Z,13.48
2022-09-24T02:15:23.929Z,13.50
2022-09-24T02:16:23.939Z,13.54
2022-09-24T02:17:23.916Z,13.50
2022-09-24T02:18:23.927Z,13.38
2022-09-24T02:19:23.888Z,13.36
2022-09-24T02:20:23.937Z,13.39
2022-09-24T02:21:23.869Z,13.36
2022-09-24T02:22:23.858Z,13.39
2022-09-24T02:23:23.856Z,13.46
2022-09-24T02:24:23.829Z,13.41
2022-09-24T02:25:23.833Z,13.38
2022-09-24T02:26:23.863Z,13.44
2022-09-24T02:27:23.799Z,13.32
2022-09-24T02:28:23.829Z,13.32
2022-09-24T02:29:23.807Z,13.32
2022-09-24T02:30:23.771Z,13.44
2022-09-24T02:31:23.779Z,13.47
2022-09-24T02:32:23.773Z,13.39
2022-09-24T02:33:23.738Z,13.50
2022-09-24T02:34:23.759Z,13.53
2022-09-24T02:35:23.723Z,13.54
2022-09-24T02:36:23.747Z,13.50
2022-09-24T02:37:23.743Z,13.54
2022-09-24T02:38:23.709Z,13.54
2022-09-24T02:39:23.694Z,13.53
2022-09-24T02:40:23.726Z,13.54
2022-09-24T02:41:23.663Z,13.48
2022-09-24T02:42:23.648Z,13.54
2022-09-24T02:43:23.656Z,13.54
2022-09-24T02:44:23.640Z,13.51
2022-09-24T02:45:23.648Z,13.54
2022-09-24T02:46:23.626Z,13.51
2022-09-24T02:47:23.589Z,13.53
2022-09-24T02:48:23.565Z,13.55
2022-09-24T02:49:23.576Z,13.51
2022-09-24T02:50:23.546Z,13.54
2022-09-24T02:51:23.558Z,13.53
2022-09-24T02:52:23.552Z,13.53
2022-09-24T02:53:23.532Z,13.43
2022-09-24T02:54:23.500Z,13.53
2022-09-24T02:55:23.496Z,13.46
2022-09-24T02:56:23.488Z,13.46
2022-09-24T02:57:23.501Z,13.46
2022-09-24T02:58:23.480Z,13.54
2022-09-24T02:59:23.450Z,13.54
2022-09-24T03:00:23.438Z,13.54
2022-09-24T03:01:23.516Z,13.55
2022-09-24T03:02:23.644Z,13.57
2022-09-24T03:03:23.455Z,13.68
2022-09-24T03:04:23.403Z,13.53
2022-09-24T03:05:23.384Z,13.53
2022-09-24T03:06:23.369Z,13.62
2022-09-24T03:07:23.363Z,13.57
2022-09-24T03:08:23.382Z,13.55
2022-09-24T03:09:23.341Z,13.62
2022-09-24T03:10:23.355Z,13.61
2022-09-24T03:11:23.333Z,13.68
2022-09-24T03:12:23.315Z,13.62
2022-09-24T03:13:23.343Z,13.62
2022-09-24T03:14:23.291Z,13.54
2022-09-24T03:15:23.273Z,13.61
2022-09-24T03:16:23.339Z,13.65
2022-09-24T03:17:23.250Z,13.63
2022-09-24T03:18:23.262Z,13.68
2022-09-24T03:19:23.251Z,13.71
2022-09-24T03:20:23.248Z,13.69
2022-09-24T03:21:23.229Z,13.72
2022-09-24T03:22:23.223Z,13.73
2022-09-24T03:23:23.216Z,13.71
2022-09-24T03:24:23.198Z,13.81
2022-09-24T03:25:23.168Z,13.86
2022-09-24T03:26:23.168Z,13.83
2022-09-24T03:27:23.146Z,13.84
2022-09-24T03:28:23.165Z,13.93
2022-09-24T03:29:23.139Z,13.93
2022-09-24T03:30:23.126Z,13.86
2022-09-24T03:31:23.172Z,13.91
2022-09-24T03:32:23.087Z,13.88
2022-09-24T03:33:23.110Z,13.91
2022-09-24T03:34:23.079Z,13.91
2022-09-24T03:35:23.057Z,13.93
2022-09-24T03:36:23.045Z,13.94
2022-09-24T03:37:23.045Z,13.96
2022-09-24T03:38:23.054Z,13.94
2022-09-24T03:39:23.055Z,13.88
2022-09-24T03:40:23.186Z,13.96
2022-09-24T03:41:23.007Z,13.84
2022-09-24T03:42:23.037Z,13.98
2022-09-24T03:43:22.994Z,13.87
2022-09-24T03:44:22.978Z,13.91
2022-09-24T03:45:22.957Z,13.96
2022-09-24T03:46:22.958Z,13.94
2022-09-24T03:47:22.961Z,13.88
2022-09-24T03:48:22.955Z,13.96
2022-09-24T03:49:22.916Z,13.93
2022-09-24T03:50:22.904Z,13.91
2022-09-24T03:51:22.905Z,13.94
2022-09-24T03:52:22.900Z,13.98
2022-09-24T03:53:22.877Z,13.96
2022-09-24T03:54:22.895Z,13.87
2022-09-24T03:55:22.860Z,13.88
2022-09-24T03:56:22.859Z,13.91
2022-09-24T03:57:22.831Z,13.96
2022-09-24T03:58:22.920Z,13.90
2022-09-24T03:59:22.802Z,13.88
2022-09-24T04:00:22.801Z,13.91
2022-09-24T04:01:22.810Z,13.94
2022-09-24T04:02:22.805Z,13.90
2022-09-24T04:03:22.912Z,13.90
2022-09-24T04:04:22.743Z,13.90
2022-09-24T04:05:22.749Z,13.87
2022-09-24T04:06:25.981Z,13.90
2022-09-24T04:07:22.722Z,13.88
2022-09-24T04:08:22.734Z,13.88
2022-09-24T04:09:22.754Z,13.76
2022-09-24T04:10:22.697Z,13.80
2022-09-24T04:11:22.682Z,13.72
2022-09-24T04:12:22.767Z,13.76
2022-09-24T04:13:22.683Z,13.68
2022-09-24T04:14:22.650Z,13.72
2022-09-24T04:15:22.631Z,13.73
2022-09-24T04:16:22.736Z,13.69
2022-09-24T04:17:22.608Z,13.71
2022-09-24T04:18:22.627Z,13.69
2022-09-24T04:19:22.592Z,13.65
2022-09-24T04:20:22.595Z,13.62
2022-09-24T04:21:22.569Z,13.65
2022-09-24T04:22:22.556Z,13.63
2022-09-24T04:23:22.564Z,13.69
2022-09-24T04:24:22.582Z,13.61
2022-09-24T04:25:22.514Z,13.66
2022-09-24T04:26:22.516Z,13.65
2022-09-24T04:27:22.515Z,13.63
2022-09-24T04:28:22.545Z,13.66
2022-09-24T04:29:22.502Z,13.63
2022-09-24T04:30:22.499Z,13.68
2022-09-24T04:31:22.589Z,13.71
2022-09-24T04:32:22.519Z,13.72
2022-09-24T04:33:22.524Z,13.65
2022-09-24T04:34:22.460Z,13.75
2022-09-24T04:35:22.416Z,13.65
2022-09-24T04:36:22.469Z,13.71
2022-09-24T04:37:22.430Z,13.72
2022-09-24T04:38:22.430Z,13.69
2022-09-24T04:39:22.370Z,13.71
2022-09-24T04:40:22.388Z,13.73
2022-09-24T04:41:22.344Z,13.71
2022-09-24T04:42:22.357Z,13.76
2022-09-24T04:43:22.337Z,13.72
2022-09-24T04:44:22.377Z,13.75
2022-09-24T04:45:22.299Z,13.81
2022-09-24T04:46:22.331Z,13.80
2022-09-24T04:47:22.336Z,13.79
2022-09-24T04:48:22.341Z,13.76
2022-09-24T04:49:22.268Z,13.71
2022-09-24T04:50:22.244Z,13.76
2022-09-24T04:51:22.241Z,13.83
2022-09-24T04:52:22.335Z,13.79
2022-09-24T04:53:22.288Z,13.76
2022-09-24T04:54:22.245Z,13.83
2022-09-24T04:55:22.201Z,13.79
2022-09-24T04:56:22.185Z,13.81
2022-09-24T04:57:22.175Z,13.76
2022-09-24T04:58:22.198Z,13.81
2022-09-24T04:59:22.143Z,13.71
2022-09-24T05:00:22.240Z,13.75
2022-09-24T05:01:22.153Z,13.80
2022-09-24T05:02:22.252Z,13.63
2022-09-24T05:03:22.183Z,13.76
2022-09-24T05:04:22.091Z,13.76
2022-09-24T05:05:22.095Z,13.75
2022-09-24T05:06:22.107Z,13.80
2022-09-24T05:07:22.062Z,13.72
2022-09-24T05:08:22.094Z,13.79
2022-09-24T05:09:22.076Z,13.76
2022-09-24T05:10:22.048Z,13.75
2022-09-24T05:11:22.055Z,13.81
2022-09-24T05:12:22.009Z,13.83
2022-09-24T05:13:22.100Z,13.81
2022-09-24T05:14:21.980Z,13.81
2022-09-24T05:15:21.990Z,13.81
2022-09-24T05:16:22.066Z,13.80
2022-09-24T05:17:21.975Z,13.80
2022-09-24T05:18:22.073Z,13.84
2022-09-24T05:19:22.000Z,13.88
2022-09-24T05:20:21.943Z,13.84
2022-09-24T05:21:21.927Z,13.84
2022-09-24T05:22:21.923Z,13.87
2022-09-24T05:23:21.890Z,13.86
2022-09-24T05:24:21.990Z,13.87
2022-09-24T05:25:21.894Z,13.83
2022-09-24T05:26:21.873Z,13.88
2022-09-24T05:27:21.849Z,13.94
2022-09-24T05:28:21.885Z,13.88
2022-09-24T05:29:21.823Z,13.90
2022-09-24T05:30:21.827Z,13.88
2022-09-24T05:31:21.919Z,13.93
2022-09-24T05:32:21.829Z,13.83
2022-09-24T05:33:21.817Z,13.90
2022-09-24T05:34:21.793Z,13.88
2022-09-24T05:35:21.789Z,13.98
2022-09-24T05:36:21.778Z,13.91
2022-09-24T05:37:21.769Z,13.87
2022-09-24T05:38:21.779Z,13.94
2022-09-24T05:39:21.713Z,13.90
2022-09-24T05:40:21.771Z,13.93
2022-09-24T05:41:21.746Z,13.87
2022-09-24T05:42:21.686Z,13.86
2022-09-24T05:43:21.714Z,13.90
2022-09-24T05:44:21.872Z,13.88
2022-09-24T05:45:21.672Z,13.88
2022-09-24T05:46:21.731Z,13.94
2022-09-24T05:47:21.639Z,13.90
2022-09-24T05:48:21.650Z,13.93
2022-09-24T05:49:21.624Z,13.94
2022-09-24T05:50:21.654Z,14.05
2022-09-24T05:51:21.596Z,13.98
2022-09-24T05:52:21.597Z,14.06
2022-09-24T05:53:21.601Z,14.08
2022-09-24T05:54:21.566Z,14.12
2022-09-24T05:55:21.603Z,14.21
2022-09-24T05:56:21.545Z,14.19
2022-09-24T05:57:21.576Z,14.13
2022-09-24T05:58:21.528Z,14.21
2022-09-24T05:59:21.513Z,14.17
2022-09-24T06:00:21.524Z,14.21
2022-09-24T06:01:21.500Z,14.19
2022-09-24T06:02:21.562Z,14.17
2022-09-24T06:03:21.608Z,14.29
2022-09-24T06:04:21.455Z,14.31
2022-09-24T06:05:21.456Z,14.26
2022-09-24T06:06:21.429Z,14.27
2022-09-24T06:07:21.489Z,14.39
2022-09-24T06:08:21.639Z,14.31
2022-09-24T06:09:21.469Z,14.38
2022-09-24T06:10:21.388Z,14.46
2022-09-24T06:11:21.385Z,14.38
2022-09-24T06:12:21.371Z,14.38
2022-09-24T06:13:21.396Z,14.49
2022-09-24T06:14:21.348Z,14.49
2022-09-24T06:15:21.398Z,14.49
2022-09-24T06:16:21.464Z,14.52
2022-09-24T06:17:21.325Z,14.52
2022-09-24T06:18:21.367Z,14.54
2022-09-24T06:19:21.277Z,14.63
2022-09-24T06:20:21.290Z,14.63
2022-09-24T06:21:21.271Z,14.66
2022-09-24T06:22:25.015Z,14.59
2022-09-24T06:23:22.332Z,14.69
2022-09-24T06:24:21.310Z,14.67
2022-09-24T06:25:21.266Z,14.63
2022-09-24T06:26:21.251Z,14.66
2022-09-24T06:27:21.288Z,14.71
2022-09-24T06:28:21.203Z,14.66
2022-09-24T06:29:21.194Z,14.72
2022-09-24T06:30:21.207Z,14.72
2022-09-24T06:31:21.220Z,14.71
2022-09-24T06:32:21.168Z,14.60
2022-09-24T06:33:21.135Z,14.63
2022-09-24T06:34:21.135Z,14.63
2022-09-24T06:35:21.162Z,14.69
2022-09-24T06:36:21.195Z,14.66
2022-09-24T06:37:21.130Z,14.69
2022-09-24T06:38:21.134Z,14.63
2022-09-24T06:39:21.064Z,14.66
2022-09-24T06:40:22.058Z,14.64
2022-09-24T06:41:21.056Z,14.67
2022-09-24T06:42:21.023Z,14.69
2022-09-24T06:43:21.064Z,14.67
2022-09-24T06:44:21.007Z,14.78
2022-09-24T06:45:20.992Z,14.78
2022-09-24T06:46:21.044Z,14.82
2022-09-24T06:47:21.044Z,14.78
2022-09-24T06:48:21.117Z,14.86
2022-09-24T06:49:21.042Z,14.90
2022-09-24T06:50:20.968Z,14.78
2022-09-24T06:51:20.928Z,14.78
2022-09-24T06:52:20.932Z,14.75
2022-09-24T06:53:21.037Z,14.85
2022-09-24T06:54:20.922Z,14.85
2022-09-24T06:55:20.903Z,14.82
2022-09-24T06:56:20.909Z,14.91
2022-09-24T06:57:24.264Z,14.86
2022-09-24T06:58:21.979Z,15.00
2022-09-24T06:59:20.880Z,14.97
2022-09-24T07:00:20.845Z,15.01
2022-09-24T07:01:20.914Z,15.01
2022-09-24T07:02:20.940Z,15.03
2022-09-24T07:03:20.866Z,15.03
2022-09-24T07:04:20.801Z,15.15
2022-09-24T07:05:20.834Z,15.18
2022-09-24T07:06:21.004Z,15.16
2022-09-24T07:07:20.920Z,15.16
2022-09-24T07:08:20.802Z,15.31
2022-09-24T07:09:20.734Z,15.28
2022-09-24T07:10:20.734Z,15.35
2022-09-24T07:11:20.732Z,15.38
2022-09-24T07:12:20.726Z,15.41
2022-09-24T07:13:20.740Z,15.58
2022-09-24T07:14:20.688Z,15.62
2022-09-24T07:15:20.900Z,15.48
2022-09-24T07:16:21.284Z,15.67
2022-09-24T07:17:20.675Z,15.62
2022-09-24T07:18:20.662Z,15.59
2022-09-24T07:19:20.745Z,15.62
2022-09-24T07:20:20.615Z,15.67
2022-09-24T07:21:20.911Z,15.60
2022-09-24T07:22:20.609Z,15.73
2022-09-24T07:23:20.662Z,15.70
2022-09-24T07:24:20.690Z,15.70
2022-09-24T07:25:20.803Z,15.67
2022-09-24T07:26:20.546Z,15.64
2022-09-24T07:27:20.543Z,15.73
2022-09-24T07:28:20.603Z,15.64
2022-09-24T07:29:20.517Z,15.71
2022-09-24T07:30:20.527Z,15.77
2022-09-24T07:31:20.536Z,15.73
2022-09-24T07:32:20.617Z,15.73
2022-09-24T07:33:20.603Z,15.81
2022-09-24T07:34:21.453Z,15.77
2022-09-24T07:35:21.205Z,15.71
2022-09-24T07:36:20.488Z,15.70
2022-09-24T07:37:20.630Z,15.77
2022-09-24T07:38:20.447Z,15.77
2022-09-24T07:39:20.403Z,15.76
2022-09-24T07:40:20.512Z,15.78
2022-09-24T07:41:20.526Z,15.70
2022-09-24T07:42:20.668Z,15.78
2022-09-24T07:43:20.618Z,15.88
2022-09-24T07:44:20.358Z,15.86
2022-09-24T07:45:20.340Z,15.92
2022-09-24T07:46:20.420Z,15.88
2022-09-24T07:47:20.346Z,15.93
2022-09-24T07:48:20.357Z,15.98
2022-09-24T07:49:20.304Z,15.92
2022-09-24T07:50:20.427Z,15.95
2022-09-24T07:51:20.662Z,15.93
2022-09-24T07:52:20.716Z,15.89
2022-09-24T07:53:20.273Z,15.91
2022-09-24T07:54:20.316Z,15.96
2022-09-24T07:55:20.259Z,15.95
2022-09-24T07:56:20.279Z,15.95
2022-09-24T07:57:20.236Z,15.96
2022-09-24T07:58:20.222Z,15.88
2022-09-24T07:59:20.313Z,15.92
2022-09-24T08:00:20.811Z,15.76
2022-09-24T08:01:20.302Z,15.74
2022-09-24T08:02:20.166Z,15.77
2022-09-24T08:03:20.226Z,15.78
2022-09-24T08:04:20.252Z,15.89
2022-09-24T08:05:20.131Z,15.85
2022-09-24T08:06:20.130Z,15.88
2022-09-24T08:07:20.118Z,15.86
2022-09-24T08:08:20.325Z,15.88
2022-09-24T08:09:20.197Z,15.98
2022-09-24T08:10:20.109Z,15.96
2022-09-24T08:11:20.061Z,16.07
2022-09-24T08:12:20.102Z,16.17
2022-09-24T08:13:25.261Z,16.27
2022-09-24T08:14:21.034Z,16.42
2022-09-24T08:15:20.025Z,16.50
2022-09-24T08:16:20.068Z,16.63
2022-09-24T08:17:20.210Z,16.67
2022-09-24T08:18:20.557Z,16.82
2022-09-24T08:19:20.021Z,16.90
2022-09-24T08:20:19.970Z,17.00
2022-09-24T08:21:19.969Z,17.06
2022-09-24T08:22:19.949Z,17.18
2022-09-24T08:23:19.984Z,17.27
2022-09-24T08:24:19.932Z,17.25
2022-09-24T08:25:19.924Z,17.36
2022-09-24T08:26:20.059Z,17.49
2022-09-24T08:27:20.186Z,17.57
2022-09-24T08:28:20.006Z,17.68
2022-09-24T08:29:19.867Z,17.70
2022-09-24T08:30:19.877Z,17.63
2022-09-24T08:31:19.945Z,17.70
2022-09-24T08:32:19.896Z,17.60
2022-09-24T08:33:19.849Z,17.66
2022-09-24T08:34:19.831Z,17.71
2022-09-24T08:35:20.011Z,17.71
2022-09-24T08:36:20.052Z,17.60
2022-09-24T08:37:19.785Z,17.58
2022-09-24T08:38:19.812Z,17.62
2022-09-24T08:39:19.782Z,17.70
2022-09-24T08:40:19.822Z,17.77
2022-09-24T08:41:19.774Z,17.80
2022-09-24T08:42:19.740Z,17.77
2022-09-24T08:43:19.785Z,17.73
2022-09-24T08:44:20.723Z,17.68
2022-09-24T08:45:20.242Z,17.70
2022-09-24T08:46:19.738Z,17.65
2022-09-24T08:47:19.678Z,17.62
2022-09-24T08:48:19.714Z,17.58
2022-09-24T08:49:19.715Z,17.74
2022-09-24T08:50:19.840Z,17.81
2022-09-24T08:51:19.651Z,17.91
2022-09-24T08:52:19.670Z,17.94
2022-09-24T08:53:20.512Z,18.02
2022-09-24T08:54:19.877Z,18.04
2022-09-24T08:55:19.612Z,18.01
2022-09-24T08:56:19.583Z,18.02
2022-09-24T08:57:19.572Z,18.11
2022-09-24T08:58:19.622Z,17.98
2022-09-24T08:59:19.614Z,18.10
2022-09-24T09:00:19.567Z,18.10
2022-09-24T09:01:19.803Z,18.09
2022-09-24T09:02:20.472Z,18.19
2022-09-24T09:03:20.019Z,18.28
2022-09-24T09:04:19.529Z,18.38
2022-09-24T09:05:19.486Z,18.51
2022-09-24T09:06:19.477Z,18.42
2022-09-24T09:07:19.468Z,18.49
2022-09-24T09:08:45.158Z,18.51
2022-09-24T09:09:20.778Z,18.51
2022-09-24T09:10:19.497Z,18.53
2022-09-24T09:11:19.608Z,18.68
2022-09-24T09:12:21.314Z,18.74
2022-09-24T09:13:19.414Z,18.71
2022-09-24T09:14:19.391Z,18.69
2022-09-24T09:15:19.392Z,18.84
2022-09-24T09:16:19.470Z,18.87
2022-09-24T09:17:19.421Z,18.79
2022-09-24T09:18:19.364Z,18.68
2022-09-24T09:19:19.412Z,18.65
2022-09-24T09:20:20.074Z,18.62
2022-09-24T09:21:19.921Z,18.44
2022-09-24T09:22:19.301Z,18.32
2022-09-24T09:23:19.317Z,18.36
2022-09-24T09:24:19.298Z,18.32
2022-09-24T09:25:19.268Z,18.19
2022-09-24T09:26:19.263Z,18.14
2022-09-24T09:27:19.269Z,18.19
2022-09-24T09:28:19.426Z,18.31
2022-09-24T09:29:19.407Z,18.36
2022-09-24T09:30:19.215Z,18.31
2022-09-24T09:31:19.400Z,18.25
2022-09-24T09:32:19.257Z,18.19
2022-09-24T09:33:19.341Z,18.20
2022-09-24T09:34:19.221Z,18.14
2022-09-24T09:35:20.012Z,18.17
2022-09-24T09:36:19.157Z,18.23
2022-09-24T09:37:24.888Z,18.32
2022-09-24T09:38:22.742Z,18.50
2022-09-24T09:39:19.133Z,18.64
2022-09-24T09:40:19.219Z,18.69
2022-09-24T09:41:19.096Z,18.66
2022-09-24T09:42:19.088Z,18.82
2022-09-24T09:43:19.153Z,18.82
2022-09-24T09:44:19.091Z,18.93
2022-09-24T09:45:20.341Z,18.84
2022-09-24T09:46:19.648Z,18.91
2022-09-24T09:47:19.327Z,18.83
2022-09-24T09:48:19.057Z,18.79
2022-09-24T09:49:19.018Z,18.76
2022-09-24T09:50:19.154Z,18.78
2022-09-24T09:51:22.295Z,18.66
2022-09-24T09:52:18.989Z,18.82
2022-09-24T09:53:18.992Z,19.01
2022-09-24T09:54:18.960Z,19.61
2022-09-24T09:55:19.679Z,20.23
2022-09-24T09:56:18.950Z,20.90
2022-09-24T09:57:18.974Z,21.46
2022-09-24T09:58:18.934Z,22.04
2022-09-24T09:59:18.901Z,21.74
2022-09-24T10:00:18.911Z,21.24
2022-09-24T10:01:19.007Z,20.96
2022-09-24T10:02:18.985Z,20.76
2022-09-24T10:03:18.997Z,20.40
2022-09-24T10:04:19.356Z,20.20
2022-09-24T10:05:22.210Z,19.95
2022-09-24T10:06:19.830Z,19.78
2022-09-24T10:07:18.823Z,19.67
2022-09-24T10:08:18.857Z,19.49
2022-09-24T10:09:18.827Z,19.32
2022-09-24T10:10:18.785Z,18.96
2022-09-24T10:11:18.769Z,18.69
2022-09-24T10:12:18.817Z,18.51
2022-09-24T10:13:19.649Z,18.21
2022-09-24T10:14:18.983Z,18.17
2022-09-24T10:15:18.727Z,18.04
2022-09-24T10:16:18.764Z,17.95
2022-09-24T10:17:18.719Z,17.86
2022-09-24T10:18:18.800Z,17.94
2022-09-24T10:19:18.690Z,17.96
2022-09-24T10:20:18.778Z,17.89
2022-09-24T10:21:18.964Z,17.87
2022-09-24T10:22:18.913Z,17.91
2022-09-24T10:23:18.989Z,17.87
2022-09-24T10:24:18.634Z,17.99
2022-09-24T10:25:18.619Z,17.92
2022-09-24T10:26:18.633Z,17.87
2022-09-24T10:27:18.607Z,17.95
2022-09-24T10:28:18.613Z,18.05
2022-09-24T10:29:18.623Z,17.99
2022-09-24T10:30:18.805Z,18.05
2022-09-24T10:31:19.078Z,18.09
2022-09-24T10:32:18.955Z,18.14
2022-09-24T10:33:18.759Z,18.31
2022-09-24T10:34:18.524Z,18.38
2022-09-24T10:35:18.584Z,18.57
2022-09-24T10:36:18.523Z,19.02
2022-09-24T10:37:18.514Z,19.21
2022-09-24T10:38:18.517Z,19.13
2022-09-24T10:39:18.518Z,19.25
2022-09-24T10:40:18.573Z,19.57
2022-09-24T10:41:18.708Z,19.46
2022-09-24T10:42:18.454Z,19.46
2022-09-24T10:43:18.472Z,19.30
2022-09-24T10:44:18.418Z,19.09
2022-09-24T10:45:18.415Z,19.06
2022-09-24T10:46:18.441Z,18.91
2022-09-24T10:47:18.402Z,18.76
2022-09-24T10:48:18.692Z,18.69
2022-09-24T10:49:18.457Z,18.72
2022-09-24T10:50:18.360Z,18.93
2022-09-24T10:51:18.374Z,18.79
2022-09-24T10:52:18.367Z,18.72
2022-09-24T10:53:18.338Z,18.51
2022-09-24T10:54:18.334Z,18.47
2022-09-24T10:55:18.295Z,18.39
2022-09-24T10:56:18.287Z,18.36
2022-09-24T10:57:18.349Z,18.47
2022-09-24T10:58:18.390Z,18.38
2022-09-24T10:59:18.257Z,18.21
2022-09-24T11:00:18.288Z,18.11
2022-09-24T11:01:18.372Z,18.09
2022-09-24T11:02:18.301Z,18.01
2022-09-24T11:03:18.313Z,17.96
2022-09-24T11:04:18.208Z,18.13
2022-09-24T11:05:18.206Z,18.01
2022-09-24T11:06:18.383Z,18.04
2022-09-24T11:07:18.218Z,18.16
2022-09-24T11:08:18.219Z,18.21
2022-09-24T11:09:18.146Z,18.47
2022-09-24T11:10:18.159Z,18.50
2022-09-24T11:11:18.155Z,18.78
2022-09-24T11:12:18.115Z,19.02
2022-09-24T11:13:18.127Z,19.15
2022-09-24T11:14:18.112Z,19.20
2022-09-24T11:15:18.414Z,19.27
2022-09-24T11:16:18.444Z,19.27
2022-09-24T11:17:18.059Z,19.47
2022-09-24T11:18:18.068Z,19.64
2022-09-24T11:19:18.037Z,19.62
2022-09-24T11:20:18.029Z,19.53
2022-09-24T11:21:18.048Z,19.57
2022-09-24T11:22:18.021Z,19.64
2022-09-24T11:23:18.013Z,20.07
2022-09-24T11:24:18.202Z,20.30
2022-09-24T11:25:18.379Z,20.73
2022-09-24T11:26:17.962Z,21.26
2022-09-24T11:27:17.961Z,21.94
2022-09-24T11:28:18.049Z,21.86
2022-09-24T11:29:17.949Z,22.67
2022-09-24T11:30:17.932Z,22.94
2022-09-24T11:31:17.953Z,23.26
2022-09-24T11:32:17.940Z,22.93
2022-09-24T11:33:22.732Z,23.15
2022-09-24T11:34:19.227Z,23.26
2022-09-24T11:35:17.895Z,23.35
2022-09-24T11:36:17.855Z,23.37
2022-09-24T11:37:17.849Z,23.64
2022-09-24T11:38:17.936Z,23.59
2022-09-24T11:39:17.821Z,23.38
2022-09-24T11:40:17.888Z,23.09
2022-09-24T11:41:17.885Z,22.81
2022-09-24T11:42:18.262Z,23.07
2022-09-24T11:43:21.758Z,22.81
2022-09-24T11:44:17.765Z,22.35
2022-09-24T11:45:17.760Z,22.24
2022-09-24T11:46:17.819Z,22.52
2022-09-24T11:47:17.771Z,22.82
2022-09-24T11:48:17.747Z,22.91
2022-09-24T11:49:17.717Z,23.07
2022-09-24T11:50:17.760Z,22.97
2022-09-24T11:51:18.023Z,22.99
2022-09-24T11:52:19.544Z,23.09
2022-09-24T11:53:17.686Z,23.47
2022-09-24T11:54:17.662Z,23.78
2022-09-24T11:55:17.651Z,23.77
2022-09-24T11:56:17.659Z,23.78
2022-09-24T11:57:17.648Z,23.79
2022-09-24T11:58:17.714Z,23.86
2022-09-24T11:59:17.801Z,24.09
2022-09-24T12:00:18.467Z,23.89
2022-09-24T12:01:18.098Z,23.54
2022-09-24T12:02:17.666Z,23.04
2022-09-24T12:03:19.905Z,22.44
2022-09-24T12:04:18.557Z,21.96
2022-09-24T12:05:17.550Z,21.49
2022-09-24T12:06:17.555Z,21.22
2022-09-24T12:07:17.526Z,20.96
2022-09-24T12:08:17.713Z,20.73
2022-09-24T12:09:18.415Z,20.68
2022-09-24T12:10:18.641Z,20.48
2022-09-24T12:11:17.482Z,20.37
2022-09-24T12:12:17.484Z,20.53
2022-09-24T12:13:17.481Z,21.13
2022-09-24T12:14:17.449Z,21.74
2022-09-24T12:15:17.466Z,22.24
2022-09-24T12:16:17.467Z,22.78
2022-09-24T12:17:17.513Z,22.88
2022-09-24T12:18:23.674Z,22.72
2022-09-24T12:19:17.394Z,22.49
2022-09-24T12:20:17.390Z,22.33
2022-09-24T12:21:17.384Z,22.17
2022-09-24T12:22:17.358Z,22.64
2022-09-24T12:23:17.398Z,22.89
2022-09-24T12:24:17.381Z,23.37
2022-09-24T12:25:17.333Z,23.74
2022-09-24T12:26:17.364Z,23.78
2022-09-24T12:27:17.919Z,23.63
2022-09-24T12:28:17.332Z,23.77
2022-09-24T12:29:17.292Z,23.81
2022-09-24T12:30:17.273Z,24.06
2022-09-24T12:31:17.347Z,24.09
2022-09-24T12:32:17.248Z,23.68
2022-09-24T12:33:17.267Z,23.42
2022-09-24T12:34:17.238Z,23.31
2022-09-24T12:35:18.121Z,23.01
2022-09-24T12:36:18.439Z,23.31
2022-09-24T12:37:17.201Z,23.21
2022-09-24T12:38:17.202Z,23.11
2022-09-24T12:39:17.193Z,23.29
2022-09-24T12:40:17.233Z,23.54
2022-09-24T12:41:17.209Z,23.64
2022-09-24T12:42:17.184Z,23.97
2022-09-24T12:43:17.331Z,24.37
2022-09-24T12:44:21.964Z,24.23
2022-09-24T12:45:18.328Z,23.39
2022-09-24T12:46:17.163Z,23.75
2022-09-24T12:47:17.160Z,23.50
2022-09-24T12:48:17.113Z,23.68
2022-09-24T12:49:17.187Z,23.94
2022-09-24T12:50:17.091Z,23.62
2022-09-24T12:51:17.067Z,23.19
2022-09-24T12:52:17.038Z,23.01